Time;durP1;ratioP1;P1;durP2;ratioP2;P2;SDS_P1;SDS_P2;PMS_P1;PMS_P2;Temp;Humidity;BMP_temperature;BMP_pressure;BME280_temperature;BME280_humidity;BME280_pressure;Samples;Min_cycle;Max_cycle;Signal;HPM_P1;HPM_P2
2023/06/01 00:02:11;;;;;;;11.68;5.68;;;;;;;11.29;84.07;102472.44;6246915;22;20025;-80
2023/06/01 00:04:41;;;;;;;6.10;4.85;;;;;;;11.29;84.34;102463.66;6222774;22;20021;-80
2023/06/01 00:07:10;;;;;;;5.53;4.80;;;;;;;11.25;83.88;102469.06;6248999;22;20047;-80
2023/06/01 00:09:37;;;;;;;8.02;5.25;;;;;;;11.23;84.39;102467.94;6247419;22;20044;-80
2023/06/01 00:12:05;;;;;;;11.23;5.50;;;;;;;11.21;84.21;102462.25;6247665;22;20100;-81
2023/06/01 00:14:32;;;;;;;7.97;5.38;;;;;;;11.21;84.19;102464.91;6251124;22;20013;-80
2023/06/01 00:16:58;;;;;;;9.05;5.50;;;;;;;11.18;84.34;102465.75;6248675;22;20016;-80
2023/06/01 00:19:26;;;;;;;6.72;5.13;;;;;;;11.16;84.47;102463.50;6247808;22;20027;-80
2023/06/01 00:21:53;;;;;;;6.63;5.25;;;;;;;11.17;84.25;102465.00;6249069;22;20443;-80
2023/06/01 00:24:21;;;;;;;9.63;5.35;;;;;;;11.13;84.81;102463.53;6248791;22;20036;-80
2023/06/01 00:26:48;;;;;;;11.70;5.65;;;;;;;11.11;84.91;102460.50;6249783;22;20016;-79
2023/06/01 00:29:15;;;;;;;7.20;5.05;;;;;;;11.11;84.81;102465.84;6249322;22;20013;-80
2023/06/01 00:31:42;;;;;;;13.32;5.55;;;;;;;11.10;85.02;102459.00;6247566;22;20017;-80
2023/06/01 00:34:09;;;;;;;14.13;5.45;;;;;;;11.09;85.28;102460.91;6248672;22;20070;-80
2023/06/01 00:36:35;;;;;;;7.07;5.47;;;;;;;11.10;84.83;102462.44;6247977;22;20021;-79
2023/06/01 00:39:03;;;;;;;8.88;5.60;;;;;;;11.07;85.08;102454.47;6246580;22;20017;-79
2023/06/01 00:41:31;;;;;;;8.40;5.97;;;;;;;11.06;85.54;102458.28;6249497;22;20048;-80
2023/06/01 00:43:59;;;;;;;7.68;5.68;;;;;;;11.06;85.17;102460.97;6246933;22;20439;-80
2023/06/01 00:46:26;;;;;;;6.00;4.90;;;;;;;11.05;85.37;102454.88;6247584;22;20451;-79
2023/06/01 00:48:54;;;;;;;6.15;4.88;;;;;;;11.05;85.08;102457.53;6222208;22;20020;-79
2023/06/01 00:51:21;;;;;;;8.52;5.25;;;;;;;11.03;85.14;102449.94;6221665;22;20481;-80
2023/06/01 00:53:49;;;;;;;7.35;5.15;;;;;;;11.05;85.39;102462.09;6246753;22;20020;-79
2023/06/01 00:56:17;;;;;;;6.47;4.97;;;;;;;11.06;85.41;102452.97;6247030;22;20012;-79
2023/06/01 00:58:44;;;;;;;7.53;5.05;;;;;;;11.07;85.71;102454.47;6248651;22;20023;-80
2023/06/01 01:01:18;;;;;;;7.00;4.75;;;;;;;11.10;85.73;102459.00;6248731;22;20452;-80
2023/06/01 01:03:49;;;;;;;7.30;4.63;;;;;;;11.11;86.02;102457.84;6249354;22;20056;-80
2023/06/01 01:06:28;;;;;;;8.75;5.07;;;;;;;11.11;85.05;102458.59;6249135;22;20464;-81
2023/06/01 01:09:07;;;;;;;8.07;5.03;;;;;;;11.11;85.50;102463.19;6247252;22;20099;-80
2023/06/01 01:11:36;;;;;;;6.03;4.75;;;;;;;11.11;85.99;102463.94;6247774;22;20494;-80
2023/06/01 01:14:20;;;;;;;15.38;5.10;;;;;;;11.13;85.44;102456.28;6246713;22;20028;-81
2023/06/01 01:17:12;;;;;;;9.02;4.97;;;;;;;11.16;85.35;102460.81;6247851;22;20136;-81
2023/06/01 01:19:57;;;;;;;;;;;;;;;11.17;84.73;102458.91;6248292;22;20072;-81
2023/06/01 01:23:02;;;;;;;6.80;4.18;;;;;;;11.17;85.03;102459.66;6248796;22;20195;-81
2023/06/01 01:25:40;;;;;;;5.78;4.20;;;;;;;11.16;85.63;102463.50;6125358;23;20094;-80
2023/06/01 01:28:33;;;;;;;7.43;4.70;;;;;;;11.14;85.34;102459.72;6125546;23;20056;-81
2023/06/01 01:31:02;;;;;;;6.65;4.57;;;;;;;11.13;85.53;102452.88;6126824;23;20057;-80
2023/06/01 01:33:32;;;;;;;12.23;4.88;;;;;;;11.10;85.44;102459.75;6126967;23;20094;-80
2023/06/01 01:36:00;;;;;;;6.40;4.85;;;;;;;11.08;86.33;102456.72;6077455;23;20102;-80
2023/06/01 01:38:28;;;;;;;7.05;4.32;;;;;;;11.07;85.47;102457.88;6102088;23;20070;-80
2023/06/01 01:40:55;;;;;;;8.27;5.03;;;;;;;11.04;85.57;102456.03;6102337;23;20457;-80
2023/06/01 01:43:22;;;;;;;7.15;5.20;;;;;;;11.03;85.40;102455.28;6102034;23;20027;-80
2023/06/01 01:46:03;;;;;;;12.10;5.22;;;;;;;11.00;85.35;102464.06;6127164;23;20025;-81
2023/06/01 01:48:40;;;;;;;6.22;4.88;;;;;;;10.96;85.40;102463.34;6102757;23;20029;-80
2023/06/01 01:51:13;;;;;;;6.65;4.93;;;;;;;10.97;85.30;102461.44;6101186;23;20480;-80
2023/06/01 01:53:42;;;;;;;8.00;4.80;;;;;;;10.96;85.34;102455.34;6103275;23;20114;-80
2023/06/01 01:56:09;;;;;;;6.47;5.07;;;;;;;10.96;85.83;102459.94;6126219;23;20057;-80
2023/06/01 01:58:36;;;;;;;10.38;5.32;;;;;;;10.97;85.78;102450.78;6078517;23;20022;-80
2023/06/01 02:01:05;;;;;;;7.30;5.10;;;;;;;10.99;86.09;102459.13;6126368;23;20432;-80
2023/06/01 02:03:32;;;;;;;10.50;5.30;;;;;;;11.01;86.14;102448.81;6248189;22;20025;-80
2023/06/01 02:06:00;;;;;;;5.93;4.93;;;;;;;11.03;85.86;102457.19;6247395;22;20382;-80
2023/06/01 02:08:26;;;;;;;8.32;5.38;;;;;;;10.97;85.66;102448.88;6222810;22;20024;-80
2023/06/01 02:10:53;;;;;;;13.65;6.93;;;;;;;10.97;85.39;102443.53;6247959;22;20017;-80
2023/06/01 02:13:20;;;;;;;10.32;5.00;;;;;;;10.95;85.33;102445.09;6248151;22;20447;-80
2023/06/01 02:15:46;;;;;;;9.98;5.32;;;;;;;10.88;84.74;102451.25;6248210;22;20086;-80
2023/06/01 02:18:15;;;;;;;7.20;6.07;;;;;;;10.83;85.13;102456.28;6222357;22;20020;-80
2023/06/01 02:20:42;;;;;;;10.25;5.28;;;;;;;10.81;84.37;102447.94;6247708;22;20075;-80
2023/06/01 02:23:09;;;;;;;10.25;5.72;;;;;;;10.79;84.24;102443.03;6247359;22;20016;-80
2023/06/01 02:25:36;;;;;;;10.45;6.00;;;;;;;10.74;84.26;102440.81;6223286;22;20044;-80
2023/06/01 02:28:03;;;;;;;9.57;5.90;;;;;;;10.71;84.39;102448.84;6248271;22;20016;-79
2023/06/01 02:30:30;;;;;;;9.57;5.68;;;;;;;10.69;84.68;102442.00;6223151;22;20533;-79
2023/06/01 02:32:56;;;;;;;14.07;6.32;;;;;;;10.68;84.80;102447.72;6248221;22;20017;-80
2023/06/01 02:35:23;;;;;;;8.20;5.93;;;;;;;10.68;84.93;102440.47;6247264;22;20089;-79
2023/06/01 02:37:49;;;;;;;7.40;5.93;;;;;;;10.69;84.86;102446.56;6222632;22;20017;-79
2023/06/01 02:40:16;;;;;;;11.10;6.65;;;;;;;10.68;85.25;102442.38;6247354;22;20028;-82
2023/06/01 02:42:43;;;;;;;11.07;6.15;;;;;;;10.69;85.58;102450.00;6250073;22;20076;-81
2023/06/01 02:45:10;;;;;;;10.60;6.65;;;;;;;10.72;85.43;102440.44;6247503;22;20048;-81
2023/06/01 02:47:36;;;;;;;8.52;5.82;;;;;;;10.71;85.43;102444.25;6249942;22;20473;-81
2023/06/01 02:50:04;;;;;;;7.15;5.78;;;;;;;10.73;85.33;102435.88;6222029;22;20028;-81
2023/06/01 02:52:35;;;;;;;7.65;6.32;;;;;;;10.75;85.45;102436.22;6223424;22;20025;-79
2023/06/01 02:55:01;;;;;;;8.85;6.15;;;;;;;10.76;85.76;102441.16;6247758;22;20075;-79
2023/06/01 02:57:47;;;;;;;9.25;5.53;;;;;;;10.76;85.84;102441.16;6247918;22;20071;-79
2023/06/01 03:00:17;;;;;;;9.32;5.78;;;;;;;10.74;85.75;102438.13;6247196;22;20473;-79
2023/06/01 03:02:47;;;;;;;11.60;6.18;;;;;;;10.75;86.13;102449.56;6247163;22;20111;-79
2023/06/01 03:05:14;;;;;;;8.65;5.88;;;;;;;10.72;85.24;102437.03;6248996;22;20012;-79
2023/06/01 03:07:43;;;;;;;12.48;5.88;;;;;;;10.71;85.47;102440.84;6222958;22;20023;-79
2023/06/01 03:10:20;;;;;;;8.55;6.25;;;;;;;10.66;85.18;102434.03;6247864;22;20012;-79
2023/06/01 03:13:09;;;;;;;15.55;5.68;;;;;;;10.61;85.46;102427.25;6248789;22;20565;-79
2023/06/01 03:15:37;;;;;;;9.00;6.15;;;;;;;10.60;85.47;102435.63;6248100;22;20108;-80
2023/06/01 03:18:05;;;;;;;9.82;6.57;;;;;;;10.59;85.30;102431.47;6246861;22;20020;-79
2023/06/01 03:20:32;;;;;;;10.70;6.47;;;;;;;10.57;85.37;102433.75;6248030;22;20023;-78
2023/06/01 03:22:59;;;;;;;14.75;6.90;;;;;;;10.55;85.55;102438.72;6249212;22;20056;-78
2023/06/01 03:25:26;;;;;;;15.63;6.60;;;;;;;10.56;86.08;102440.25;6247527;22;20362;-79
2023/06/01 03:27:53;;;;;;;11.65;6.85;;;;;;;10.56;85.42;102437.56;6247893;22;20431;-79
2023/06/01 03:30:19;;;;;;;8.00;5.85;;;;;;;10.56;85.83;102441.00;6247478;22;20027;-79
2023/06/01 03:32:48;;;;;;;11.27;6.30;;;;;;;10.57;85.69;102429.19;6247448;22;20458;-79
2023/06/01 03:35:14;;;;;;;14.40;6.40;;;;;;;10.56;85.73;102427.69;6221976;22;20012;-79
2023/06/01 03:37:44;;;;;;;9.90;6.30;;;;;;;10.56;85.77;102421.59;6247524;22;20020;-79
2023/06/01 03:40:15;;;;;;;8.65;6.45;;;;;;;10.57;85.62;102423.13;6247032;22;20016;-78
2023/06/01 03:42:46;;;;;;;10.45;6.47;;;;;;;10.59;85.23;102423.47;6249755;22;20021;-79
2023/06/01 03:45:15;;;;;;;14.25;6.57;;;;;;;10.60;85.43;102428.41;6246907;22;20067;-79
2023/06/01 03:47:42;;;;;;;11.15;6.32;;;;;;;10.62;85.67;102426.09;6247161;22;20140;-79
2023/06/01 03:50:09;;;;;;;6.93;6.18;;;;;;;10.63;85.62;102429.50;6247163;22;20426;-79
2023/06/01 03:52:37;;;;;;;9.00;6.78;;;;;;;10.63;85.46;102432.19;6247255;22;20027;-79
2023/06/01 03:55:08;;;;;;;8.02;6.40;;;;;;;10.64;85.69;102434.44;6247471;22;20012;-79
2023/06/01 03:57:53;;;;;;;13.40;6.55;;;;;;;10.67;85.87;102433.66;6249333;22;20025;-78
2023/06/01 04:00:22;;;;;;;8.95;6.35;;;;;;;10.71;85.66;102436.28;6247196;22;20050;-79
2023/06/01 04:02:58;;;;;;;9.13;6.70;;;;;;;10.72;85.74;102432.44;6248938;22;20028;-79
2023/06/01 04:05:26;;;;;;;15.10;6.78;;;;;;;10.74;85.76;102427.47;6247640;22;20390;-79
2023/06/01 04:07:55;;;;;;;9.10;6.53;;;;;;;10.77;85.94;102426.69;6247200;22;20025;-79
2023/06/01 04:10:22;;;;;;;12.02;7.03;;;;;;;10.79;86.31;102419.06;6249208;22;20088;-79
2023/06/01 04:12:50;;;;;;;9.77;6.63;;;;;;;10.79;85.90;102424.38;6247771;22;20751;-79
2023/06/01 04:15:19;;;;;;;13.15;6.22;;;;;;;10.84;86.14;102418.59;6246660;22;20016;-79
2023/06/01 04:17:46;;;;;;;8.35;5.90;;;;;;;10.86;85.91;102426.94;6249502;22;20088;-79
2023/06/01 04:20:16;;;;;;;9.10;6.20;;;;;;;10.88;85.49;102426.53;6246953;22;20096;-79
2023/06/01 04:22:45;;;;;;;10.67;7.07;;;;;;;10.88;85.59;102423.88;6249471;22;20071;-79
2023/06/01 04:25:17;;;;;;;13.50;6.80;;;;;;;10.91;85.20;102431.06;6246858;22;20127;-79
2023/06/01 04:27:47;;;;;;;12.15;5.90;;;;;;;10.93;85.09;102431.41;6247877;22;20078;-79
2023/06/01 04:30:15;;;;;;;8.50;5.75;;;;;;;10.96;84.73;102439.38;6246111;22;20075;-79
2023/06/01 04:32:44;;;;;;;11.45;6.18;;;;;;;10.95;85.10;102429.88;6222401;22;20032;-79
2023/06/01 04:35:11;;;;;;;9.27;6.32;;;;;;;10.95;84.34;102432.53;6246733;22;20027;-79
2023/06/01 04:37:40;;;;;;;12.57;6.30;;;;;;;10.96;84.78;102433.28;6247607;22;20017;-80
2023/06/01 04:40:09;;;;;;;14.05;5.80;;;;;;;10.99;84.63;102441.22;6246554;22;20025;-79
2023/06/01 04:42:45;;;;;;;9.80;5.80;;;;;;;11.02;84.29;102437.00;6247524;22;20544;-79
2023/06/01 04:45:13;;;;;;;11.52;5.82;;;;;;;11.01;84.07;102438.94;6246496;22;20027;-79
2023/06/01 04:47:40;;;;;;;12.50;5.80;;;;;;;11.04;83.74;102437.38;6222343;22;20512;-79
2023/06/01 04:50:17;;;;;;;10.73;5.32;;;;;;;11.08;83.42;102440.00;6247210;22;20447;-79
2023/06/01 04:52:44;;;;;;;12.48;5.60;;;;;;;11.10;83.11;102446.44;6247334;22;20031;-80
2023/06/01 04:55:14;;;;;;;14.20;5.63;;;;;;;11.12;83.30;102444.13;6246492;22;20021;-79
2023/06/01 04:57:43;;;;;;;16.77;5.47;;;;;;;11.16;83.02;102446.75;6247318;22;20016;-79
2023/06/01 05:00:13;;;;;;;8.50;5.25;;;;;;;11.17;82.90;102445.59;6245566;22;20051;-79
2023/06/01 05:02:40;;;;;;;10.95;5.18;;;;;;;11.15;82.14;102443.31;6246851;22;20116;-79
2023/06/01 05:05:08;;;;;;;7.78;5.72;;;;;;;11.16;82.19;102444.84;6246579;22;20021;-79
2023/06/01 05:07:38;;;;;;;9.00;5.35;;;;;;;11.19;82.39;102444.03;6249230;22;20016;-79
2023/06/01 05:10:08;;;;;;;7.82;5.63;;;;;;;11.20;82.18;102450.09;6246711;22;20071;-79
2023/06/01 05:12:42;;;;;;;10.60;5.55;;;;;;;11.24;82.03;102445.47;6247837;22;20020;-80
2023/06/01 05:15:09;;;;;;;8.60;5.53;;;;;;;11.29;81.95;102453.00;6220840;22;20095;-79
2023/06/01 05:17:38;;;;;;;10.20;5.47;;;;;;;11.30;81.84;102447.28;6222289;22;20017;-79
2023/06/01 05:20:17;;;;;;;10.10;5.73;;;;;;;11.33;81.78;102451.06;6247323;22;20056;-79
2023/06/01 05:22:49;;;;;;;12.75;6.20;;;;;;;11.35;81.68;102448.75;6246791;22;20228;-79
2023/06/01 05:25:16;;;;;;;10.85;6.13;;;;;;;11.39;81.44;102454.78;6246930;22;20477;-80
2023/06/01 05:27:43;;;;;;;11.07;5.95;;;;;;;11.42;81.45;102443.31;6246754;22;20075;-80
2023/06/01 05:30:10;;;;;;;9.70;6.03;;;;;;;11.43;81.11;102449.41;6248356;22;20019;-79
2023/06/01 05:32:37;;;;;;;9.30;6.30;;;;;;;11.45;81.18;102447.84;6246896;22;20020;-80
2023/06/01 05:35:10;;;;;;;10.52;6.13;;;;;;;11.48;81.47;102451.59;6246494;22;20108;-80
2023/06/01 05:37:37;;;;;;;12.15;6.40;;;;;;;11.51;81.37;102451.56;6246980;22;20017;-80
2023/06/01 05:40:07;;;;;;;11.82;6.22;;;;;;;11.54;81.14;102455.34;6246688;22;20442;-80
2023/06/01 05:42:34;;;;;;;12.80;6.32;;;;;;;11.54;80.82;102453.41;6246479;22;20067;-79
2023/06/01 05:45:01;;;;;;;16.42;6.30;;;;;;;11.58;80.69;102450.69;6246888;22;20051;-80
2023/06/01 05:47:27;;;;;;;8.75;5.80;;;;;;;11.62;80.11;102460.13;6246593;22;20083;-80
2023/06/01 05:49:54;;;;;;;10.05;6.15;;;;;;;11.62;80.18;102457.47;6248712;22;20020;-80
2023/06/01 05:52:22;;;;;;;10.52;5.57;;;;;;;11.64;79.82;102455.16;6248733;22;20027;-80
2023/06/01 05:54:50;;;;;;;10.32;6.10;;;;;;;11.68;79.87;102455.84;6247089;22;20040;-81
2023/06/01 05:57:17;;;;;;;11.65;6.30;;;;;;;11.72;79.80;102463.03;6246578;22;20048;-80
2023/06/01 05:59:45;;;;;;;11.40;6.28;;;;;;;11.77;79.88;102467.94;6246921;22;20021;-80
2023/06/01 06:02:15;;;;;;;11.38;6.00;;;;;;;11.79;78.76;102462.97;6246908;22;20113;-80
2023/06/01 06:04:43;;;;;;;16.52;5.82;;;;;;;11.80;78.61;102473.22;6249187;22;20355;-80
2023/06/01 06:07:11;;;;;;;9.85;6.10;;;;;;;11.80;78.46;102464.47;6247500;22;20017;-80
2023/06/01 06:09:37;;;;;;;13.00;5.93;;;;;;;11.81;78.17;102468.66;6249348;22;20020;-81
2023/06/01 06:12:05;;;;;;;9.77;5.63;;;;;;;11.82;77.74;102460.25;6248855;22;20470;-81
2023/06/01 06:14:32;;;;;;;9.70;5.90;;;;;;;11.88;77.82;102468.53;6249793;22;20017;-80
2023/06/01 06:16:59;;;;;;;11.18;5.68;;;;;;;11.96;77.30;102467.28;6250842;22;20013;-81
2023/06/01 06:19:26;;;;;;;9.70;5.80;;;;;;;12.00;77.32;102467.94;6250562;22;20013;-81
2023/06/01 06:21:53;;;;;;;10.20;5.70;;;;;;;12.05;76.80;102464.03;6248863;22;20048;-82
2023/06/01 06:24:19;;;;;;;8.95;5.72;;;;;;;12.09;77.26;102462.84;6250068;22;20374;-80
2023/06/01 06:26:47;;;;;;;10.57;6.20;;;;;;;12.14;76.33;102462.38;6250298;22;20328;-80
2023/06/01 06:29:14;;;;;;;8.15;6.00;;;;;;;12.17;76.73;102453.53;6250447;22;20544;-80
2023/06/01 06:31:42;;;;;;;7.97;5.35;;;;;;;12.24;76.21;102452.66;6249134;22;20024;-80
2023/06/01 06:34:11;;;;;;;10.90;6.35;;;;;;;12.29;76.10;102454.88;6250573;22;20016;-79
2023/06/01 06:36:38;;;;;;;9.70;5.97;;;;;;;12.34;75.82;102455.16;6251051;22;20013;-79
2023/06/01 06:39:05;;;;;;;10.10;6.28;;;;;;;12.43;75.14;102453.81;6250390;22;20017;-78
2023/06/01 06:41:31;;;;;;;12.90;6.10;;;;;;;12.42;75.27;102455.00;6250185;22;20020;-80
2023/06/01 06:43:58;;;;;;;7.97;6.05;;;;;;;12.50;75.27;102461.72;6250930;22;20024;-80
2023/06/01 06:46:24;;;;;;;9.05;5.72;;;;;;;12.60;74.93;102463.44;6250451;22;20454;-82
2023/06/01 06:48:51;;;;;;;6.68;5.90;;;;;;;12.66;73.97;102461.78;6248854;22;20016;-81
2023/06/01 06:51:17;;;;;;;12.57;6.15;;;;;;;12.66;73.67;102461.78;6248772;22;20028;-80
2023/06/01 06:53:44;;;;;;;12.48;6.32;;;;;;;12.71;73.40;102469.31;6250799;22;20016;-82
2023/06/01 06:56:10;;;;;;;15.10;6.53;;;;;;;12.73;73.06;102467.00;6250087;22;20013;-82
2023/06/01 06:58:37;;;;;;;9.27;6.00;;;;;;;12.89;72.88;102468.94;6249167;22;20498;-81
2023/06/01 07:01:05;;;;;;;14.77;6.70;;;;;;;13.02;72.38;102473.25;6250726;22;20089;-81
2023/06/01 07:03:32;;;;;;;8.80;6.18;;;;;;;13.04;71.73;102475.53;6248842;22;20454;-83
2023/06/01 07:05:59;;;;;;;13.00;6.63;;;;;;;13.02;71.68;102483.19;6251077;22;20017;-81
2023/06/01 07:08:26;;;;;;;12.57;6.68;;;;;;;13.16;71.84;102482.94;6250394;22;20433;-80
2023/06/01 07:10:55;;;;;;;11.00;7.10;;;;;;;13.28;71.49;102479.59;6250127;22;20051;-80
2023/06/01 07:13:25;;;;;;;14.10;6.50;;;;;;;13.39;71.65;102476.69;6250017;22;20096;-78
2023/06/01 07:15:53;;;;;;;9.50;6.63;;;;;;;13.50;71.10;102474.53;6250759;22;20471;-79
2023/06/01 07:18:19;;;;;;;12.13;6.43;;;;;;;13.62;70.19;102481.88;6250390;22;20482;-80
2023/06/01 07:20:46;;;;;;;11.25;6.55;;;;;;;13.59;70.53;102480.06;6250489;22;20027;-80
2023/06/01 07:23:12;;;;;;;8.70;6.03;;;;;;;13.64;69.55;102490.25;6248837;22;20013;-80
2023/06/01 07:25:39;;;;;;;8.00;5.63;;;;;;;13.64;69.92;102476.84;6249061;22;20020;-79
2023/06/01 07:28:07;;;;;;;10.15;6.10;;;;;;;13.65;69.00;102467.66;6249853;22;20024;-79
2023/06/01 07:30:34;;;;;;;11.52;5.75;;;;;;;13.64;69.22;102476.84;6249086;22;20016;-80
2023/06/01 07:33:03;;;;;;;9.07;5.88;;;;;;;13.85;68.31;102469.50;6250637;22;20023;-80
2023/06/01 07:35:32;;;;;;;10.05;5.72;;;;;;;14.05;68.43;102467.44;6250657;22;20013;-81
2023/06/01 07:37:58;;;;;;;9.98;6.13;;;;;;;14.15;67.69;102479.81;6250150;22;20012;-79
2023/06/01 07:40:25;;;;;;;10.25;5.75;;;;;;;14.26;67.19;102474.19;6250223;22;20024;-78
2023/06/01 07:42:52;;;;;;;9.70;5.70;;;;;;;14.38;67.41;102464.72;6248740;22;20071;-80
2023/06/01 07:45:18;;;;;;;11.93;5.47;;;;;;;14.70;66.63;102466.53;6248378;22;20020;-79
2023/06/01 07:47:45;;;;;;;9.98;5.30;;;;;;;14.84;65.91;102464.16;6250578;22;20083;-80
2023/06/01 07:50:12;;;;;;;6.65;5.60;;;;;;;14.91;65.53;102463.22;6250257;22;20094;-78
2023/06/01 07:52:38;;;;;;;10.07;5.85;;;;;;;15.00;65.36;102469.44;6248336;22;20454;-78
2023/06/01 07:55:06;;;;;;;9.10;5.30;;;;;;;14.99;64.66;102473.31;6248797;22;20013;-79
2023/06/01 07:57:32;;;;;;;15.48;5.75;;;;;;;14.90;65.16;102472.44;6250957;22;20012;-79
2023/06/01 07:59:59;;;;;;;10.82;5.95;;;;;;;14.95;65.30;102467.31;6250173;22;20028;-79
2023/06/01 08:02:26;;;;;;;7.78;5.40;;;;;;;15.31;64.72;102472.34;6249017;22;20044;-79
2023/06/01 08:04:56;;;;;;;8.98;5.03;;;;;;;15.73;63.66;102463.41;6249806;22;20339;-78
2023/06/01 08:07:27;;;;;;;8.27;5.40;;;;;;;15.93;62.84;102469.28;6247703;22;20017;-79
2023/06/01 08:09:55;;;;;;;8.98;4.95;;;;;;;16.28;61.42;102461.94;6250357;22;20446;-78
2023/06/01 08:12:21;;;;;;;11.23;5.50;;;;;;;16.35;60.58;102459.00;6248134;22;20087;-80
2023/06/01 08:14:48;;;;;;;9.88;5.53;;;;;;;16.44;60.13;102459.03;6250235;22;20040;-79
2023/06/01 08:17:15;;;;;;;8.70;5.30;;;;;;;16.49;60.87;102455.03;6249920;22;20510;-79
2023/06/01 08:19:42;;;;;;;9.15;5.25;;;;;;;16.57;59.49;102467.03;6250142;22;20101;-79
2023/06/01 08:22:09;;;;;;;8.60;5.10;;;;;;;16.34;60.10;102457.50;6249599;22;20450;-79
2023/06/01 08:24:35;;;;;;;7.63;4.60;;;;;;;16.31;59.87;102453.75;6248356;22;20096;-79
2023/06/01 08:27:15;;;;;;;8.23;5.18;;;;;;;16.43;60.64;102452.16;6250388;22;20013;-79
2023/06/01 08:29:41;;;;;;;7.25;4.63;;;;;;;17.05;58.69;102449.53;6250933;22;20020;-80
2023/06/01 08:32:09;;;;;;;8.77;5.13;;;;;;;17.27;58.27;102454.81;6250008;22;20013;-79
2023/06/01 08:34:36;;;;;;;9.32;4.85;;;;;;;17.27;56.63;102441.34;6250068;22;20111;-77
2023/06/01 08:37:03;;;;;;;8.32;4.68;;;;;;;17.32;56.99;102448.84;6222068;22;20100;-79
2023/06/01 08:39:30;;;;;;;9.43;4.43;;;;;;;17.42;57.52;102446.94;6250077;22;20016;-77
2023/06/01 08:42:07;;;;;;;7.85;4.38;;;;;;;17.45;57.24;102456.81;6250341;22;20431;-81
2023/06/01 08:44:39;;;;;;;7.07;5.03;;;;;;;17.13;56.73;102450.00;6249554;22;20497;-79
2023/06/01 08:47:07;;;;;;;9.57;4.78;;;;;;;17.45;56.86;102454.13;6249466;22;20103;-77
2023/06/01 08:49:36;;;;;;;7.07;5.13;;;;;;;17.87;55.59;102449.69;6249910;22;20016;-81
2023/06/01 08:52:08;;;;;;;8.48;4.80;;;;;;;17.92;56.01;102448.34;6247191;22;20443;-79
2023/06/01 08:54:35;;;;;;;9.00;4.57;;;;;;;17.89;55.91;102447.31;6249874;22;20108;-78
2023/06/01 08:57:06;;;;;;;6.63;4.80;;;;;;;18.06;54.56;102450.44;6248145;22;20075;-79
2023/06/01 08:59:36;;;;;;;6.65;4.85;;;;;;;17.68;55.19;102442.78;6248229;22;20017;-80
2023/06/01 09:02:03;;;;;;;6.10;4.93;;;;;;;17.46;55.83;102437.50;6248443;22;20455;-80
2023/06/01 09:04:35;;;;;;;7.75;5.07;;;;;;;17.36;56.56;102451.41;6250859;22;20431;-80
2023/06/01 09:07:02;;;;;;;7.03;4.70;;;;;;;17.36;56.64;102443.31;6250162;22;20081;-80
2023/06/01 09:09:29;;;;;;;6.28;4.93;;;;;;;17.45;56.00;102440.66;6249849;22;20020;-83
2023/06/01 09:12:19;;;;;;;5.00;4.45;;;;;;;17.64;56.95;102440.22;6250317;22;20032;-81
2023/06/01 09:14:46;;;;;;;7.93;4.78;;;;;;;17.72;55.70;102454.16;6248705;22;20020;-82
2023/06/01 09:17:14;;;;;;;9.48;4.45;;;;;;;17.55;56.14;102444.88;6249348;22;20027;-83
2023/06/01 09:19:44;;;;;;;5.97;4.13;;;;;;;17.87;56.16;102438.19;6249414;22;20979;-80
2023/06/01 09:22:12;;;;;;;5.47;4.90;;;;;;;18.30;55.01;102442.47;6249284;22;20016;-80
2023/06/01 09:24:42;;;;;;;5.78;4.57;;;;;;;18.43;54.19;102439.59;6249715;22;20024;-80
2023/06/01 09:27:09;;;;;;;7.63;4.63;;;;;;;18.35;53.57;102438.44;6249457;22;20327;-81
2023/06/01 09:29:35;;;;;;;5.38;4.40;;;;;;;18.27;53.61;102433.34;6249859;22;20044;-81
2023/06/01 09:32:02;;;;;;;8.18;4.20;;;;;;;18.28;53.70;102417.94;6247963;22;20012;-82
2023/06/01 09:34:30;;;;;;;7.78;4.13;;;;;;;18.32;53.29;102413.88;6248683;22;20020;-81
2023/06/01 09:36:56;;;;;;;6.32;4.47;;;;;;;18.34;53.80;102413.41;6251874;22;20013;-83
2023/06/01 09:39:24;;;;;;;7.45;5.13;;;;;;;18.68;54.00;102414.25;6249640;22;20055;-80
2023/06/01 09:41:55;;;;;;;5.85;4.40;;;;;;;19.08;53.28;102406.56;6249557;22;20027;-80
2023/06/01 09:44:27;;;;;;;5.03;4.47;;;;;;;19.24;51.37;102418.88;6249102;22;20451;-80
2023/06/01 09:47:14;;;;;;;7.32;4.13;;;;;;;19.45;51.93;102407.06;6249598;22;20023;-81
2023/06/01 09:49:43;;;;;;;8.35;4.45;;;;;;;19.61;51.13;102409.34;6247843;22;20021;-81
2023/06/01 09:52:14;;;;;;;7.18;4.78;;;;;;;19.33;51.19;102419.59;6223352;22;20020;-80
2023/06/01 09:54:49;;;;;;;8.43;4.50;;;;;;;19.15;51.64;102410.88;6250783;22;20478;-81
2023/06/01 09:57:22;;;;;;;5.55;4.60;;;;;;;18.97;51.53;102404.34;6250564;22;20013;-82
2023/06/01 09:59:49;;;;;;;6.72;4.88;;;;;;;19.07;51.36;102404.31;6248366;22;20032;-79
2023/06/01 10:02:18;;;;;;;6.97;4.78;;;;;;;19.13;51.23;102411.31;6248632;22;20023;-80
2023/06/01 10:04:50;;;;;;;7.65;4.68;;;;;;;19.21;51.41;102409.00;6250181;22;20016;-85
2023/06/01 10:07:18;;;;;;;5.72;4.82;;;;;;;19.00;50.69;102394.59;6248840;22;20044;-82
2023/06/01 10:09:49;;;;;;;7.25;5.05;;;;;;;18.93;51.53;102398.38;6252465;22;20001;-83
2023/06/01 10:12:16;;;;;;;7.88;5.07;;;;;;;19.47;51.07;102390.41;6251955;22;20017;-83
2023/06/01 10:14:43;;;;;;;6.10;4.95;;;;;;;19.70;49.62;102394.28;6251075;22;20040;-82
2023/06/01 10:17:11;;;;;;;5.55;4.95;;;;;;;19.99;49.22;102400.47;6248870;22;20021;-86
2023/06/01 10:19:38;;;;;;;4.82;4.43;;;;;;;20.15;49.29;102395.81;6248659;22;20021;-83
2023/06/01 10:22:06;;;;;;;4.82;4.32;;;;;;;19.98;49.83;102398.25;6248836;22;20075;-79
2023/06/01 10:24:35;;;;;;;8.35;4.70;;;;;;;19.90;48.87;102407.94;6250272;22;20431;-82
2023/06/01 10:27:11;;;;;;;10.70;4.85;;;;;;;20.17;48.41;102404.97;6250822;22;20019;-80
2023/06/01 10:29:38;;;;;;;6.20;5.25;;;;;;;20.18;48.01;102401.03;6251097;22;20123;-82
2023/06/01 10:32:37;;;;;;;8.50;5.45;;;;;;;20.51;47.78;102402.81;6249918;22;20040;-82
2023/06/01 10:35:05;;;;;;;9.70;5.20;;;;;;;20.54;47.88;102410.75;6249044;22;20421;-82
2023/06/01 10:37:32;;;;;;;10.55;5.07;;;;;;;20.36;47.61;102402.06;6249245;22;20013;-83
2023/06/01 10:40:14;;;;;;;6.43;4.80;;;;;;;20.53;47.56;102400.38;6249180;22;20521;-86
2023/06/01 10:42:41;;;;;;;7.28;4.78;;;;;;;20.51;48.30;102405.50;6251433;22;20099;-84
2023/06/01 10:45:28;;;;;;;5.47;4.60;;;;;;;20.75;47.87;102408.84;6256652;22;20021;-83
2023/06/01 10:47:54;;;;;;;6.80;4.63;;;;;;;20.90;46.18;102400.66;6250198;22;20648;-84
2023/06/01 10:50:21;;;;;;;8.43;4.63;;;;;;;20.58;46.85;102405.88;6248717;22;20020;-84
2023/06/01 10:52:48;;;;;;;6.68;4.60;;;;;;;20.81;46.15;102400.78;6249215;22;20016;-83
2023/06/01 10:55:14;;;;;;;7.03;4.28;;;;;;;20.96;45.64;102399.53;6248723;22;20454;-83
2023/06/01 10:57:45;;;;;;;4.35;3.85;;;;;;;20.90;46.76;102393.28;6250930;22;20017;-85
2023/06/01 11:00:15;;;;;;;6.28;4.03;;;;;;;21.08;45.72;102396.97;6250055;22;20096;-81
2023/06/01 11:02:55;;;;;;;5.07;3.95;;;;;;;20.84;45.68;102399.84;6250383;22;20017;-83
2023/06/01 11:05:37;;;;;;;6.00;3.80;;;;;;;20.91;46.48;102394.78;6248510;22;20486;-81
2023/06/01 11:08:29;;;;;;;5.43;4.00;;;;;;;20.71;46.57;102389.34;6250726;22;20017;-82
2023/06/01 11:11:03;;;;;;;4.95;3.38;;;;;;;20.90;46.80;102390.59;6233900;22;20021;-81
2023/06/01 11:13:34;;;;;;;3.65;3.00;;;;;;;20.73;46.85;102384.22;6249040;22;20417;-83
2023/06/01 11:16:03;;;;;;;6.15;3.35;;;;;;;20.89;47.46;102389.09;6248613;22;20020;-82
2023/06/01 11:18:46;;;;;;;4.50;3.08;;;;;;;21.08;46.92;102392.31;6251979;22;20040;-81
2023/06/01 11:21:18;;;;;;;6.60;3.33;;;;;;;21.04;46.28;102386.34;6250328;22;20021;-80
2023/06/01 11:23:45;;;;;;;4.57;3.33;;;;;;;21.07;45.54;102390.81;6250593;22;20044;-81
2023/06/01 11:26:17;;;;;;;6.07;2.95;;;;;;;21.27;46.11;102385.41;6248515;22;20017;-82
2023/06/01 11:28:45;;;;;;;8.77;3.30;;;;;;;21.08;45.65;102386.88;6249244;22;20055;-81
2023/06/01 11:31:16;;;;;;;3.40;3.10;;;;;;;20.61;46.51;102388.72;6249807;22;20017;-82
2023/06/01 11:33:52;;;;;;;5.63;3.13;;;;;;;20.73;46.33;102386.91;6250656;22;20446;-80